KBOK/BOK METAR and TAF weather

Enter ICAO airport designator
Station Type Date Time Source
KBOK METAR 2018/07/20 13:56 UTC NOAA

KBOK 201356Z AUTO 00000KT 10SM CLR 17/09 A2994 RMK AO2 SLP147 T01670089


Station Type Date Time Source
KBOK Decoded METAR 2018/07/20 13:56 UTC NOAA

Brookings, Brookings Airport, OR, United States (KBOK) 42-04-28N 124-17-24W
Jul 20, 2018 - 09:56 AM EDT / 2018.07.20 1356 UTC
Wind: Calm:0
Visibility: 10 mile(s):0
Sky conditions: clear
Temperature: 62.1 F (16.7 C)
Dew Point: 48.0 F (8.9 C)
Relative Humidity: 59%
Pressure (altimeter): 29.94 in. Hg (1013 hPa)
ob: KBOK 201356Z AUTO 00000KT 10SM CLR 17/09 A2994 RMK AO2 SLP147 T01670089
cycle: 14

Station Type Date Time Source
KBOK TAF UTC NOAA

Error!


Example: see airport list